sensor_id;sensor_type;location;lat;lon;timestamp;pressure;altitude;pressure_sealevel;temperature;humidity
36192;BME280;22233;42.708;23.360;2023-02-27T00:01:21;94537.91;;;13.69;52.38
36192;BME280;22233;42.708;23.360;2023-02-27T00:03:46;94533.97;;;13.86;52.06
36192;BME280;22233;42.708;23.360;2023-02-27T00:06:12;94530.34;;;13.97;52.19
36192;BME280;22233;42.708;23.360;2023-02-27T00:08:37;94548.97;;;13.76;52.49
36192;BME280;22233;42.708;23.360;2023-02-27T00:11:03;94520.53;;;13.77;51.92
36192;BME280;22233;42.708;23.360;2023-02-27T00:13:28;94523.69;;;13.79;51.84
36192;BME280;22233;42.708;23.360;2023-02-27T00:15:53;94527.19;;;13.95;52.02
36192;BME280;22233;42.708;23.360;2023-02-27T00:18:21;94533.66;;;13.55;52.79
36192;BME280;22233;42.708;23.360;2023-02-27T00:20:46;94516.16;;;13.72;52.80
36192;BME280;22233;42.708;23.360;2023-02-27T00:23:13;94529.63;;;13.49;53.59
36192;BME280;22233;42.708;23.360;2023-02-27T00:25:40;94531.88;;;13.79;52.12
36192;BME280;22233;42.708;23.360;2023-02-27T00:28:06;94533.22;;;13.69;52.69
36192;BME280;22233;42.708;23.360;2023-02-27T00:30:31;94538.94;;;13.64;52.87
36192;BME280;22233;42.708;23.360;2023-02-27T00:32:57;94521.66;;;13.76;52.63
36192;BME280;22233;42.708;23.360;2023-02-27T00:35:22;94535.25;;;13.72;51.50
36192;BME280;22233;42.708;23.360;2023-02-27T00:37:48;94528.25;;;12.95;52.90
36192;BME280;22233;42.708;23.360;2023-02-27T00:40:14;94533.47;;;13.16;53.10
36192;BME280;22233;42.708;23.360;2023-02-27T00:42:39;94518.28;;;13.31;52.27
36192;BME280;22233;42.708;23.360;2023-02-27T00:45:05;94521.09;;;12.75;54.27
36192;BME280;22233;42.708;23.360;2023-02-27T00:47:32;94547.38;;;12.83;53.69
36192;BME280;22233;42.708;23.360;2023-02-27T00:49:58;94543.59;;;12.72;55.26
36192;BME280;22233;42.708;23.360;2023-02-27T00:52:23;94535.59;;;12.51;56.29
36192;BME280;22233;42.708;23.360;2023-02-27T00:54:49;94541.06;;;12.51;55.85
36192;BME280;22233;42.708;23.360;2023-02-27T00:57:14;94530.03;;;12.75;55.09
36192;BME280;22233;42.708;23.360;2023-02-27T00:59:40;94518.69;;;12.73;55.05
36192;BME280;22233;42.708;23.360;2023-02-27T01:02:05;94528.66;;;12.82;54.15
36192;BME280;22233;42.708;23.360;2023-02-27T01:04:31;94518.38;;;12.91;53.67
36192;BME280;22233;42.708;23.360;2023-02-27T01:06:56;94543.16;;;12.86;54.96
36192;BME280;22233;42.708;23.360;2023-02-27T01:09:21;94532.25;;;12.86;54.32
36192;BME280;22233;42.708;23.360;2023-02-27T01:11:49;94534.94;;;12.98;54.37
36192;BME280;22233;42.708;23.360;2023-02-27T01:14:14;94523.53;;;13.08;53.81
36192;BME280;22233;42.708;23.360;2023-02-27T01:16:40;94546.22;;;13.12;54.25
36192;BME280;22233;42.708;23.360;2023-02-27T01:19:05;94530.75;;;13.16;54.11
36192;BME280;22233;42.708;23.360;2023-02-27T01:21:31;94544.81;;;13.18;53.89
36192;BME280;22233;42.708;23.360;2023-02-27T01:23:56;94548.97;;;13.28;54.21
36192;BME280;22233;42.708;23.360;2023-02-27T01:26:22;94541.31;;;13.34;54.25
36192;BME280;22233;42.708;23.360;2023-02-27T01:28:47;94540.44;;;13.30;54.28
36192;BME280;22233;42.708;23.360;2023-02-27T01:31:12;94550.22;;;13.31;53.69
36192;BME280;22233;42.708;23.360;2023-02-27T01:33:38;94545.81;;;12.82;55.38
36192;BME280;22233;42.708;23.360;2023-02-27T01:36:03;94551.72;;;12.84;55.25
36192;BME280;22233;42.708;23.360;2023-02-27T01:38:29;94551.66;;;12.96;54.70
36192;BME280;22233;42.708;23.360;2023-02-27T01:40:54;94550.84;;;13.12;54.48
36192;BME280;22233;42.708;23.360;2023-02-27T01:43:23;94548.63;;;12.86;55.91
36192;BME280;22233;42.708;23.360;2023-02-27T01:45:49;94556.84;;;12.73;55.83
36192;BME280;22233;42.708;23.360;2023-02-27T01:50:50;94598.88;;;13.01;54.66
36192;BME280;22233;42.708;23.360;2023-02-27T01:53:18;94599.31;;;12.74;55.64
36192;BME280;22233;42.708;23.360;2023-02-27T01:55:45;94608.56;;;12.86;55.24
36192;BME280;22233;42.708;23.360;2023-02-27T01:58:11;94609.78;;;12.72;55.82
36192;BME280;22233;42.708;23.360;2023-02-27T02:00:39;94593.47;;;12.88;55.51
36192;BME280;22233;42.708;23.360;2023-02-27T02:05:48;94602.72;;;12.99;55.00
36192;BME280;22233;42.708;23.360;2023-02-27T02:08:17;94597.09;;;12.92;55.39
36192;BME280;22233;42.708;23.360;2023-02-27T02:10:46;94603.28;;;13.05;56.02
36192;BME280;22233;42.708;23.360;2023-02-27T02:13:13;94624.66;;;13.31;55.27
36192;BME280;22233;42.708;23.360;2023-02-27T02:15:44;94630.66;;;12.28;57.89
36192;BME280;22233;42.708;23.360;2023-02-27T02:18:41;94637.94;;;12.24;59.24
36192;BME280;22233;42.708;23.360;2023-02-27T02:26:55;94745.69;;;12.25;63.67
36192;BME280;22233;42.708;23.360;2023-02-27T02:35:52;94814.09;;;10.25;72.59
36192;BME280;22233;42.708;23.360;2023-02-27T02:44:26;94799.53;;;10.68;72.31
36192;BME280;22233;42.708;23.360;2023-02-27T02:47:07;94800.94;;;10.74;72.60
36192;BME280;22233;42.708;23.360;2023-02-27T02:49:53;94836.13;;;10.71;73.18
36192;BME280;22233;42.708;23.360;2023-02-27T02:52:42;94843.00;;;10.98;72.20
36192;BME280;22233;42.708;23.360;2023-02-27T02:55:13;94852.16;;;11.14;71.87
36192;BME280;22233;42.708;23.360;2023-02-27T03:02:43;94848.13;;;10.23;70.88
36192;BME280;22233;42.708;23.360;2023-02-27T03:05:26;94864.16;;;9.98;69.84
36192;BME280;22233;42.708;23.360;2023-02-27T03:07:57;94886.03;;;9.32;72.51
36192;BME280;22233;42.708;23.360;2023-02-27T03:10:29;94884.38;;;9.13;72.87
36192;BME280;22233;42.708;23.360;2023-02-27T03:13:01;94877.16;;;8.83;72.56
36192;BME280;22233;42.708;23.360;2023-02-27T03:15:39;94884.50;;;8.42;74.29
36192;BME280;22233;42.708;23.360;2023-02-27T03:18:09;94902.03;;;8.45;74.19
36192;BME280;22233;42.708;23.360;2023-02-27T03:20:45;94883.34;;;8.74;72.91
36192;BME280;22233;42.708;23.360;2023-02-27T03:23:17;94894.16;;;8.66;73.62
36192;BME280;22233;42.708;23.360;2023-02-27T03:25:45;94887.31;;;8.68;72.73
36192;BME280;22233;42.708;23.360;2023-02-27T03:28:14;94902.19;;;8.48;74.36
36192;BME280;22233;42.708;23.360;2023-02-27T03:31:06;94912.03;;;8.75;72.47
36192;BME280;22233;42.708;23.360;2023-02-27T03:33:53;94928.13;;;8.80;72.75
36192;BME280;22233;42.708;23.360;2023-02-27T03:47:29;94949.59;;;9.17;71.02
36192;BME280;22233;42.708;23.360;2023-02-27T03:49:57;94951.38;;;9.22;71.02
36192;BME280;22233;42.708;23.360;2023-02-27T03:52:23;94948.63;;;9.13;72.29
36192;BME280;22233;42.708;23.360;2023-02-27T03:55:00;94961.38;;;9.12;71.65
36192;BME280;22233;42.708;23.360;2023-02-27T03:57:29;94961.47;;;8.90;72.74
36192;BME280;22233;42.708;23.360;2023-02-27T03:59:55;94976.47;;;8.96;72.74
36192;BME280;22233;42.708;23.360;2023-02-27T04:02:21;94993.25;;;9.07;72.33
36192;BME280;22233;42.708;23.360;2023-02-27T04:04:47;94995.47;;;9.13;71.05
36192;BME280;22233;42.708;23.360;2023-02-27T04:16:04;95002.28;;;8.62;72.17
36192;BME280;22233;42.708;23.360;2023-02-27T04:20:57;95007.72;;;8.17;74.19
36192;BME280;22233;42.708;23.360;2023-02-27T04:23:53;95026.06;;;7.70;75.89
36192;BME280;22233;42.708;23.360;2023-02-27T04:26:27;95032.25;;;8.07;74.75
36192;BME280;22233;42.708;23.360;2023-02-27T04:29:29;95040.00;;;7.77;75.37
36192;BME280;22233;42.708;23.360;2023-02-27T04:31:58;95032.91;;;7.53;74.94
36192;BME280;22233;42.708;23.360;2023-02-27T04:34:30;95048.41;;;7.62;73.15
36192;BME280;22233;42.708;23.360;2023-02-27T04:37:01;95052.25;;;7.33;75.43
36192;BME280;22233;42.708;23.360;2023-02-27T04:42:09;95067.63;;;7.46;74.67
36192;BME280;22233;42.708;23.360;2023-02-27T04:44:36;95078.06;;;7.67;73.31
36192;BME280;22233;42.708;23.360;2023-02-27T04:47:05;95081.44;;;7.72;72.39
36192;BME280;22233;42.708;23.360;2023-02-27T04:49:44;95100.06;;;7.46;73.83
36192;BME280;22233;42.708;23.360;2023-02-27T04:52:16;95099.28;;;7.46;74.11
36192;BME280;22233;42.708;23.360;2023-02-27T04:54:51;95101.06;;;7.50;73.79
36192;BME280;22233;42.708;23.360;2023-02-27T04:57:23;95091.84;;;7.79;73.16
36192;BME280;22233;42.708;23.360;2023-02-27T04:59:53;95117.47;;;7.95;72.61
36192;BME280;22233;42.708;23.360;2023-02-27T05:02:30;95109.09;;;7.69;73.09
36192;BME280;22233;42.708;23.360;2023-02-27T05:05:00;95112.66;;;7.92;71.65
36192;BME280;22233;42.708;23.360;2023-02-27T05:07:36;95115.47;;;7.87;71.49
36192;BME280;22233;42.708;23.360;2023-02-27T05:10:20;95117.00;;;7.52;72.56
36192;BME280;22233;42.708;23.360;2023-02-27T05:16:13;95123.47;;;7.09;73.72
36192;BME280;22233;42.708;23.360;2023-02-27T05:18:42;95134.19;;;7.14;74.37
36192;BME280;22233;42.708;23.360;2023-02-27T05:24:09;95150.63;;;7.59;72.27
36192;BME280;22233;42.708;23.360;2023-02-27T05:29:35;95165.75;;;8.02;70.83
36192;BME280;22233;42.708;23.360;2023-02-27T05:35:14;95173.75;;;8.07;70.37
36192;BME280;22233;42.708;23.360;2023-02-27T05:38:05;95169.44;;;8.06;69.91
36192;BME280;22233;42.708;23.360;2023-02-27T05:40:43;95170.69;;;8.36;70.05
36192;BME280;22233;42.708;23.360;2023-02-27T05:43:33;95174.16;;;8.00;71.79
36192;BME280;22233;42.708;23.360;2023-02-27T05:46:07;95188.78;;;8.13;70.01
36192;BME280;22233;42.708;23.360;2023-02-27T05:48:40;95182.72;;;8.30;70.20
36192;BME280;22233;42.708;23.360;2023-02-27T05:51:07;95187.06;;;8.31;68.83
36192;BME280;22233;42.708;23.360;2023-02-27T05:53:38;95179.97;;;7.80;70.01
36192;BME280;22233;42.708;23.360;2023-02-27T05:56:07;95158.97;;;7.03;71.95
36192;BME280;22233;42.708;23.360;2023-02-27T05:58:41;95173.75;;;7.52;71.23
36192;BME280;22233;42.708;23.360;2023-02-27T06:01:10;95181.97;;;7.74;70.69
36192;BME280;22233;42.708;23.360;2023-02-27T06:03:39;95180.88;;;7.62;70.02
36192;BME280;22233;42.708;23.360;2023-02-27T06:06:07;95196.00;;;8.04;68.38
36192;BME280;22233;42.708;23.360;2023-02-27T06:08:35;95211.81;;;8.11;68.99
36192;BME280;22233;42.708;23.360;2023-02-27T06:11:00;95206.59;;;7.87;69.05
36192;BME280;22233;42.708;23.360;2023-02-27T06:13:26;95215.94;;;7.94;68.72
36192;BME280;22233;42.708;23.360;2023-02-27T06:15:51;95212.84;;;7.73;68.33
36192;BME280;22233;42.708;23.360;2023-02-27T06:18:18;95202.09;;;7.68;69.68
36192;BME280;22233;42.708;23.360;2023-02-27T06:20:44;95221.72;;;7.74;69.93
36192;BME280;22233;42.708;23.360;2023-02-27T06:23:10;95217.94;;;7.75;68.87
36192;BME280;22233;42.708;23.360;2023-02-27T06:25:36;95194.50;;;7.84;68.14
36192;BME280;22233;42.708;23.360;2023-02-27T06:28:02;95195.78;;;7.87;69.11
36192;BME280;22233;42.708;23.360;2023-02-27T06:30:28;95213.44;;;8.12;67.78
36192;BME280;22233;42.708;23.360;2023-02-27T06:32:53;95224.03;;;7.67;69.08
36192;BME280;22233;42.708;23.360;2023-02-27T06:35:19;95232.56;;;8.02;67.96
36192;BME280;22233;42.708;23.360;2023-02-27T06:37:45;95230.63;;;7.74;68.67
36192;BME280;22233;42.708;23.360;2023-02-27T06:40:10;95238.94;;;7.17;70.69
36192;BME280;22233;42.708;23.360;2023-02-27T06:42:43;95247.66;;;7.61;68.77
36192;BME280;22233;42.708;23.360;2023-02-27T06:45:10;95255.09;;;7.83;68.02
36192;BME280;22233;42.708;23.360;2023-02-27T06:47:36;95234.13;;;7.47;68.67
36192;BME280;22233;42.708;23.360;2023-02-27T06:50:03;95244.59;;;6.83;71.25
36192;BME280;22233;42.708;23.360;2023-02-27T06:52:30;95246.63;;;7.10;70.96
36192;BME280;22233;42.708;23.360;2023-02-27T06:54:55;95260.13;;;7.43;69.63
36192;BME280;22233;42.708;23.360;2023-02-27T06:57:21;95259.84;;;7.58;68.89
36192;BME280;22233;42.708;23.360;2023-02-27T06:59:46;95266.28;;;7.63;68.75
36192;BME280;22233;42.708;23.360;2023-02-27T07:02:13;95249.31;;;7.43;69.11
36192;BME280;22233;42.708;23.360;2023-02-27T07:04:39;95255.28;;;7.73;68.38
36192;BME280;22233;42.708;23.360;2023-02-27T07:07:04;95237.19;;;7.27;69.81
36192;BME280;22233;42.708;23.360;2023-02-27T07:09:30;95264.66;;;7.15;70.92
36192;BME280;22233;42.708;23.360;2023-02-27T07:11:56;95241.59;;;7.04;70.64
36192;BME280;22233;42.708;23.360;2023-02-27T07:14:21;95246.25;;;6.98;71.51
36192;BME280;22233;42.708;23.360;2023-02-27T07:16:47;95254.91;;;6.81;70.58
36192;BME280;22233;42.708;23.360;2023-02-27T07:19:16;95271.91;;;7.33;69.74
36192;BME280;22233;42.708;23.360;2023-02-27T07:21:42;95268.31;;;7.38;69.68
36192;BME280;22233;42.708;23.360;2023-02-27T07:24:08;95265.56;;;7.24;70.91
36192;BME280;22233;42.708;23.360;2023-02-27T07:26:34;95262.09;;;7.05;71.96
36192;BME280;22233;42.708;23.360;2023-02-27T07:28:59;95263.03;;;7.14;70.37
36192;BME280;22233;42.708;23.360;2023-02-27T07:31:25;95258.44;;;7.47;69.16
36192;BME280;22233;42.708;23.360;2023-02-27T07:33:50;95272.69;;;7.53;69.75
36192;BME280;22233;42.708;23.360;2023-02-27T07:36:15;95274.94;;;7.92;67.98
36192;BME280;22233;42.708;23.360;2023-02-27T07:38:41;95260.28;;;7.66;68.47
36192;BME280;22233;42.708;23.360;2023-02-27T07:41:06;95263.53;;;7.95;66.59
36192;BME280;22233;42.708;23.360;2023-02-27T07:43:31;95259.59;;;7.74;68.78
36192;BME280;22233;42.708;23.360;2023-02-27T07:45:57;95240.28;;;7.67;68.35
36192;BME280;22233;42.708;23.360;2023-02-27T07:48:23;95285.88;;;8.15;67.68
36192;BME280;22233;42.708;23.360;2023-02-27T07:50:48;95292.28;;;7.91;68.46
36192;BME280;22233;42.708;23.360;2023-02-27T07:53:14;95298.19;;;7.93;68.71
36192;BME280;22233;42.708;23.360;2023-02-27T07:55:39;95293.16;;;7.87;69.09
36192;BME280;22233;42.708;23.360;2023-02-27T07:58:05;95289.38;;;8.15;67.81
36192;BME280;22233;42.708;23.360;2023-02-27T08:00:30;95300.06;;;7.79;68.94
36192;BME280;22233;42.708;23.360;2023-02-27T08:02:56;95283.94;;;7.74;69.58
36192;BME280;22233;42.708;23.360;2023-02-27T08:05:21;95282.97;;;8.25;68.33
36192;BME280;22233;42.708;23.360;2023-02-27T08:07:46;95296.00;;;8.23;67.64
36192;BME280;22233;42.708;23.360;2023-02-27T08:10:12;95282.94;;;8.39;67.17
36192;BME280;22233;42.708;23.360;2023-02-27T08:12:40;95300.22;;;8.57;67.03
36192;BME280;22233;42.708;23.360;2023-02-27T08:15:06;95289.00;;;9.00;66.49
36192;BME280;22233;42.708;23.360;2023-02-27T08:17:31;95297.66;;;9.25;65.86
36192;BME280;22233;42.708;23.360;2023-02-27T08:19:57;95287.84;;;8.78;65.59
36192;BME280;22233;42.708;23.360;2023-02-27T08:22:22;95294.78;;;9.07;66.01
36192;BME280;22233;42.708;23.360;2023-02-27T08:24:47;95299.88;;;9.45;64.98
36192;BME280;22233;42.708;23.360;2023-02-27T08:27:13;95288.34;;;9.17;65.01
36192;BME280;22233;42.708;23.360;2023-02-27T08:29:39;95299.31;;;9.57;64.76
36192;BME280;22233;42.708;23.360;2023-02-27T08:32:05;95289.41;;;9.52;64.31
36192;BME280;22233;42.708;23.360;2023-02-27T08:34:30;95300.31;;;9.16;64.47
36192;BME280;22233;42.708;23.360;2023-02-27T08:36:55;95289.09;;;9.54;64.72
36192;BME280;22233;42.708;23.360;2023-02-27T08:39:21;95300.19;;;9.44;64.72
36192;BME280;22233;42.708;23.360;2023-02-27T08:41:49;95284.91;;;8.89;65.84
36192;BME280;22233;42.708;23.360;2023-02-27T08:44:14;95283.72;;;9.17;66.74
36192;BME280;22233;42.708;23.360;2023-02-27T08:46:40;95290.56;;;9.83;65.39
36192;BME280;22233;42.708;23.360;2023-02-27T08:49:05;95293.09;;;10.10;64.35
36192;BME280;22233;42.708;23.360;2023-02-27T08:51:30;95281.75;;;10.48;63.27
36192;BME280;22233;42.708;23.360;2023-02-27T08:53:56;95296.63;;;10.19;63.58
36192;BME280;22233;42.708;23.360;2023-02-27T08:56:26;95301.44;;;10.63;62.11
36192;BME280;22233;42.708;23.360;2023-02-27T08:58:52;95281.78;;;10.74;61.86
36192;BME280;22233;42.708;23.360;2023-02-27T09:01:18;95292.75;;;10.43;62.60
36192;BME280;22233;42.708;23.360;2023-02-27T09:03:44;95326.72;;;10.32;62.80
36192;BME280;22233;42.708;23.360;2023-02-27T09:06:10;95303.88;;;10.02;64.57
36192;BME280;22233;42.708;23.360;2023-02-27T09:08:35;95324.09;;;9.64;64.75
36192;BME280;22233;42.708;23.360;2023-02-27T09:11:00;95315.81;;;9.92;63.51
36192;BME280;22233;42.708;23.360;2023-02-27T09:13:27;95328.38;;;9.88;64.27
36192;BME280;22233;42.708;23.360;2023-02-27T09:15:53;95334.94;;;10.49;64.05
36192;BME280;22233;42.708;23.360;2023-02-27T09:18:18;95330.19;;;10.55;62.89
36192;BME280;22233;42.708;23.360;2023-02-27T09:20:44;95320.19;;;10.82;62.38
36192;BME280;22233;42.708;23.360;2023-02-27T09:23:10;95342.16;;;11.20;61.39
36192;BME280;22233;42.708;23.360;2023-02-27T09:25:35;95321.22;;;11.29;60.47
36192;BME280;22233;42.708;23.360;2023-02-27T09:28:01;95326.16;;;11.62;60.20
36192;BME280;22233;42.708;23.360;2023-02-27T09:30:27;95341.03;;;11.99;60.55
36192;BME280;22233;42.708;23.360;2023-02-27T09:32:52;95337.81;;;11.80;59.10
36192;BME280;22233;42.708;23.360;2023-02-27T09:35:18;95335.28;;;11.31;59.85
36192;BME280;22233;42.708;23.360;2023-02-27T09:37:47;95342.31;;;11.50;59.29
36192;BME280;22233;42.708;23.360;2023-02-27T09:40:23;95341.81;;;11.83;58.79
36192;BME280;22233;42.708;23.360;2023-02-27T09:42:50;95329.19;;;11.78;58.66
36192;BME280;22233;42.708;23.360;2023-02-27T09:45:28;95328.09;;;11.62;60.54
36192;BME280;22233;42.708;23.360;2023-02-27T09:50:56;95335.84;;;12.24;60.84
36192;BME280;22233;42.708;23.360;2023-02-27T09:55:47;95333.00;;;11.77;59.87
36192;BME280;22233;42.708;23.360;2023-02-27T10:01:32;95352.75;;;11.91;60.52
36192;BME280;22233;42.708;23.360;2023-02-27T10:04:48;95361.81;;;12.13;60.39
36192;BME280;22233;42.708;23.360;2023-02-27T10:07:01;95361.38;;;11.93;59.71
36192;BME280;22233;42.708;23.360;2023-02-27T10:14:46;95366.97;;;11.97;59.97
36192;BME280;22233;42.708;23.360;2023-02-27T10:19:44;95368.81;;;12.40;59.95
36192;BME280;22233;42.708;23.360;2023-02-27T10:22:15;95370.84;;;12.52;59.52
36192;BME280;22233;42.708;23.360;2023-02-27T10:24:51;95367.53;;;12.76;58.26
36192;BME280;22233;42.708;23.360;2023-02-27T10:27:19;95368.38;;;12.97;58.52
36192;BME280;22233;42.708;23.360;2023-02-27T10:29:45;95370.53;;;12.92;58.42
36192;BME280;22233;42.708;23.360;2023-02-27T10:32:21;95371.25;;;13.01;57.41
36192;BME280;22233;42.708;23.360;2023-02-27T10:34:51;95367.66;;;12.88;57.93
36192;BME280;22233;42.708;23.360;2023-02-27T10:37:21;95363.00;;;13.10;57.01
36192;BME280;22233;42.708;23.360;2023-02-27T10:42:17;95341.63;;;12.14;59.56
36192;BME280;22233;42.708;23.360;2023-02-27T10:44:42;95345.28;;;12.65;58.93
36192;BME280;22233;42.708;23.360;2023-02-27T10:47:14;95354.31;;;12.57;59.01
36192;BME280;22233;42.708;23.360;2023-02-27T10:49:40;95345.88;;;12.41;60.02
36192;BME280;22233;42.708;23.360;2023-02-27T10:52:08;95352.06;;;12.59;59.14
36192;BME280;22233;42.708;23.360;2023-02-27T10:54:34;95343.25;;;12.92;57.65
36192;BME280;22233;42.708;23.360;2023-02-27T10:57:03;95352.47;;;12.31;58.75
36192;BME280;22233;42.708;23.360;2023-02-27T10:59:32;95354.59;;;12.17;59.47
36192;BME280;22233;42.708;23.360;2023-02-27T11:04:54;95345.63;;;12.16;59.37
36192;BME280;22233;42.708;23.360;2023-02-27T11:10:20;95325.16;;;12.10;59.12
36192;BME280;22233;42.708;23.360;2023-02-27T11:15:25;95327.38;;;12.94;57.82
36192;BME280;22233;42.708;23.360;2023-02-27T11:17:52;95332.50;;;12.66;58.93
36192;BME280;22233;42.708;23.360;2023-02-27T11:23:14;95318.56;;;13.18;57.17
36192;BME280;22233;42.708;23.360;2023-02-27T11:25:40;95319.34;;;13.18;57.44
36192;BME280;22233;42.708;23.360;2023-02-27T11:31:14;95306.09;;;13.08;58.19
36192;BME280;22233;42.708;23.360;2023-02-27T11:33:53;95309.75;;;13.42;57.93
36192;BME280;22233;42.708;23.360;2023-02-27T11:36:20;95318.19;;;12.69;58.72
36192;BME280;22233;42.708;23.360;2023-02-27T11:38:54;95312.50;;;12.83;59.46
36192;BME280;22233;42.708;23.360;2023-02-27T11:41:29;95303.69;;;13.28;58.53
36192;BME280;22233;42.708;23.360;2023-02-27T11:43:57;95308.44;;;13.39;58.53
36192;BME280;22233;42.708;23.360;2023-02-27T11:46:25;95318.91;;;13.08;58.35
36192;BME280;22233;42.708;23.360;2023-02-27T11:52:16;95322.47;;;12.78;59.16
36192;BME280;22233;42.708;23.360;2023-02-27T11:54:38;95306.88;;;12.49;60.11
36192;BME280;22233;42.708;23.360;2023-02-27T11:57:28;95328.47;;;12.93;60.20
36192;BME280;22233;42.708;23.360;2023-02-27T12:06:15;95306.88;;;12.58;60.10
36192;BME280;22233;42.708;23.360;2023-02-27T12:08:35;95305.81;;;13.31;59.16
36192;BME280;22233;42.708;23.360;2023-02-27T12:11:12;95302.13;;;13.48;58.33
36192;BME280;22233;42.708;23.360;2023-02-27T12:13:42;95307.25;;;13.70;57.71
36192;BME280;22233;42.708;23.360;2023-02-27T12:16:23;95304.13;;;13.38;57.53
36192;BME280;22233;42.708;23.360;2023-02-27T12:19:17;95297.06;;;13.58;57.99
36192;BME280;22233;42.708;23.360;2023-02-27T12:21:47;95308.44;;;13.61;57.34
36192;BME280;22233;42.708;23.360;2023-02-27T12:24:20;95304.63;;;13.74;57.49
36192;BME280;22233;42.708;23.360;2023-02-27T12:26:51;95310.47;;;14.30;55.96
36192;BME280;22233;42.708;23.360;2023-02-27T12:29:30;95304.50;;;14.74;55.26
36192;BME280;22233;42.708;23.360;2023-02-27T12:32:13;95311.66;;;14.66;55.11
36192;BME280;22233;42.708;23.360;2023-02-27T12:34:53;95307.09;;;14.83;55.07
36192;BME280;22233;42.708;23.360;2023-02-27T12:37:27;95303.75;;;14.28;56.31
36192;BME280;22233;42.708;23.360;2023-02-27T12:39:55;95283.72;;;14.36;56.42
36192;BME280;22233;42.708;23.360;2023-02-27T12:45:29;95291.44;;;15.32;54.23
36192;BME280;22233;42.708;23.360;2023-02-27T12:48:20;95291.88;;;15.34;54.38
36192;BME280;22233;42.708;23.360;2023-02-27T12:53:25;95305.31;;;14.99;54.71
36192;BME280;22233;42.708;23.360;2023-02-27T13:03:59;95296.31;;;14.62;56.15
36192;BME280;22233;42.708;23.360;2023-02-27T13:06:32;95285.69;;;14.97;55.65
36192;BME280;22233;42.708;23.360;2023-02-27T13:09:04;95291.25;;;15.01;56.11
36192;BME280;22233;42.708;23.360;2023-02-27T13:14:45;95310.72;;;14.50;55.40
36192;BME280;22233;42.708;23.360;2023-02-27T13:17:30;95316.53;;;13.27;58.96
36192;BME280;22233;42.708;23.360;2023-02-27T13:20:06;95310.88;;;13.11;58.81
36192;BME280;22233;42.708;23.360;2023-02-27T13:22:48;95303.94;;;12.93;59.90
36192;BME280;22233;42.708;23.360;2023-02-27T13:25:16;95314.09;;;12.15;60.85
36192;BME280;22233;42.708;23.360;2023-02-27T13:27:46;95308.22;;;11.70;61.51
36192;BME280;22233;42.708;23.360;2023-02-27T13:30:23;95310.75;;;12.10;60.50
36192;BME280;22233;42.708;23.360;2023-02-27T13:38:49;95292.41;;;11.28;62.90
36192;BME280;22233;42.708;23.360;2023-02-27T13:43:58;95290.59;;;11.76;61.51
36192;BME280;22233;42.708;23.360;2023-02-27T13:46:28;95302.31;;;11.68;60.77
36192;BME280;22233;42.708;23.360;2023-02-27T13:49:20;95294.63;;;11.52;61.17
36192;BME280;22233;42.708;23.360;2023-02-27T13:51:47;95313.19;;;11.15;62.70
36192;BME280;22233;42.708;23.360;2023-02-27T13:57:06;95323.75;;;11.26;62.09
36192;BME280;22233;42.708;23.360;2023-02-27T13:59:37;95323.13;;;11.46;60.85
36192;BME280;22233;42.708;23.360;2023-02-27T14:02:33;95327.00;;;10.62;62.29
36192;BME280;22233;42.708;23.360;2023-02-27T14:05:04;95348.31;;;10.86;63.10
36192;BME280;22233;42.708;23.360;2023-02-27T14:07:51;95331.25;;;10.36;63.63
36192;BME280;22233;42.708;23.360;2023-02-27T14:10:22;95351.41;;;10.22;64.22
36192;BME280;22233;42.708;23.360;2023-02-27T14:12:49;95336.25;;;10.20;64.30
36192;BME280;22233;42.708;23.360;2023-02-27T14:17:43;95357.81;;;10.26;63.37
36192;BME280;22233;42.708;23.360;2023-02-27T14:22:42;95351.22;;;9.64;66.01
36192;BME280;22233;42.708;23.360;2023-02-27T14:25:29;95355.22;;;9.44;66.51
36192;BME280;22233;42.708;23.360;2023-02-27T14:27:57;95337.13;;;9.17;66.11
36192;BME280;22233;42.708;23.360;2023-02-27T14:30:41;95343.50;;;8.98;68.07
36192;BME280;22233;42.708;23.360;2023-02-27T14:33:20;95363.59;;;8.84;68.01
36192;BME280;22233;42.708;23.360;2023-02-27T14:35:54;95356.63;;;8.91;67.77
36192;BME280;22233;42.708;23.360;2023-02-27T14:38:20;95365.47;;;8.83;68.07
36192;BME280;22233;42.708;23.360;2023-02-27T14:43:50;95372.41;;;8.89;69.03
36192;BME280;22233;42.708;23.360;2023-02-27T14:49:00;95411.72;;;8.87;69.28
36192;BME280;22233;42.708;23.360;2023-02-27T14:51:32;95401.09;;;8.63;70.69
36192;BME280;22233;42.708;23.360;2023-02-27T14:54:04;95394.47;;;8.83;70.53
36192;BME280;22233;42.708;23.360;2023-02-27T14:56:31;95369.78;;;8.98;69.54
36192;BME280;22233;42.708;23.360;2023-02-27T14:58:57;95393.19;;;8.52;71.84
36192;BME280;22233;42.708;23.360;2023-02-27T15:01:25;95394.47;;;8.69;70.85
36192;BME280;22233;42.708;23.360;2023-02-27T15:03:54;95409.88;;;8.40;72.36
36192;BME280;22233;42.708;23.360;2023-02-27T15:06:27;95406.06;;;8.28;72.92
36192;BME280;22233;42.708;23.360;2023-02-27T15:08:57;95409.03;;;8.12;73.88
36192;BME280;22233;42.708;23.360;2023-02-27T15:11:24;95421.03;;;8.06;74.03
36192;BME280;22233;42.708;23.360;2023-02-27T15:14:03;95424.03;;;8.05;74.68
36192;BME280;22233;42.708;23.360;2023-02-27T15:16:40;95431.47;;;8.13;74.67
36192;BME280;22233;42.708;23.360;2023-02-27T15:19:19;95448.38;;;8.05;75.79
36192;BME280;22233;42.708;23.360;2023-02-27T15:21:53;95450.78;;;8.39;74.42
36192;BME280;22233;42.708;23.360;2023-02-27T15:27:04;95456.34;;;8.15;77.37
36192;BME280;22233;42.708;23.360;2023-02-27T15:29:41;95434.16;;;7.99;78.79
36192;BME280;22233;42.708;23.360;2023-02-27T15:32:15;95437.91;;;8.17;78.16
36192;BME280;22233;42.708;23.360;2023-02-27T15:34:42;95457.81;;;8.07;78.80
36192;BME280;22233;42.708;23.360;2023-02-27T15:37:23;95470.78;;;7.72;79.78
36192;BME280;22233;42.708;23.360;2023-02-27T15:39:51;95465.47;;;8.19;78.82